createdAt,value
2023-03-13T00:01:19.720Z,3.61
2023-03-13T00:03:48.116Z,3.57
2023-03-13T00:06:16.859Z,3.58
2023-03-13T00:08:46.430Z,3.61
2023-03-13T00:11:16.408Z,3.64
2023-03-13T00:13:45.015Z,3.61
2023-03-13T00:16:15.220Z,3.59
2023-03-13T00:18:48.122Z,3.58
2023-03-13T00:21:17.261Z,3.65
2023-03-13T00:23:47.507Z,3.74
2023-03-13T00:26:17.899Z,3.82
2023-03-13T00:28:46.378Z,3.85
2023-03-13T00:31:17.172Z,3.91
2023-03-13T00:33:47.277Z,3.93
2023-03-13T00:36:17.363Z,3.87
2023-03-13T00:38:47.573Z,3.82
2023-03-13T00:41:18.341Z,3.77
2023-03-13T00:43:48.449Z,3.66
2023-03-13T00:46:19.901Z,3.58
2023-03-13T00:48:48.880Z,3.51
2023-03-13T00:51:19.248Z,3.52
2023-03-13T00:53:49.010Z,3.54
2023-03-13T00:56:18.236Z,3.64
2023-03-13T00:58:48.341Z,3.70
2023-03-13T01:01:18.553Z,3.68
2023-03-13T01:03:49.300Z,3.63
2023-03-13T01:06:22.644Z,3.71
2023-03-13T01:08:52.616Z,3.69
2023-03-13T01:11:22.914Z,3.71
2023-03-13T01:13:51.627Z,3.65
2023-03-13T01:16:21.333Z,3.68
2023-03-13T01:18:51.602Z,3.66
2023-03-13T01:21:24.209Z,3.59
2023-03-13T01:23:54.874Z,3.58
2023-03-13T01:26:24.222Z,3.56
2023-03-13T01:28:53.407Z,3.54
2023-03-13T01:31:24.426Z,3.51
2023-03-13T01:33:55.129Z,3.48
2023-03-13T01:36:23.567Z,3.42
2023-03-13T01:38:54.628Z,3.34
2023-03-13T01:41:24.603Z,3.25
2023-03-13T01:43:53.225Z,3.16
2023-03-13T01:46:24.931Z,3.16
2023-03-13T01:48:56.424Z,3.10
2023-03-13T01:51:28.278Z,3.10
2023-03-13T01:54:04.968Z,3.10
2023-03-13T01:56:41.678Z,3.10
2023-03-13T01:59:14.897Z,3.04
2023-03-13T02:01:43.708Z,3.00
2023-03-13T02:04:12.788Z,2.98
2023-03-13T02:06:44.605Z,2.93
2023-03-13T02:09:18.142Z,2.82
2023-03-13T02:11:53.585Z,2.82
2023-03-13T02:14:25.217Z,2.83
2023-03-13T02:16:54.307Z,2.81
2023-03-13T02:19:29.429Z,2.82
2023-03-13T02:22:05.798Z,2.80
2023-03-13T02:24:42.672Z,2.80
2023-03-13T02:27:12.234Z,2.83
2023-03-13T02:29:40.420Z,2.89
2023-03-13T02:32:09.182Z,2.79
2023-03-13T02:34:41.124Z,2.81
2023-03-13T02:37:13.034Z,2.77
2023-03-13T02:39:47.063Z,2.75
2023-03-13T02:42:20.154Z,2.71
2023-03-13T02:44:48.954Z,2.64
2023-03-13T02:47:20.584Z,2.55
2023-03-13T02:49:49.027Z,2.60
2023-03-13T02:52:20.308Z,2.63
2023-03-13T02:54:51.757Z,2.62
2023-03-13T02:57:21.272Z,2.65
2023-03-13T02:59:49.352Z,2.62
2023-03-13T03:02:17.371Z,2.59
2023-03-13T03:04:45.481Z,2.58
2023-03-13T03:07:13.728Z,2.50
2023-03-13T03:09:41.901Z,2.38
2023-03-13T03:12:10.707Z,2.36
2023-03-13T03:14:40.348Z,2.32
2023-03-13T03:17:08.585Z,2.28
2023-03-13T03:19:36.652Z,2.21
2023-03-13T03:22:05.039Z,2.15
2023-03-13T03:24:33.038Z,2.06
2023-03-13T03:27:01.181Z,1.97
2023-03-13T03:29:29.388Z,1.89
2023-03-13T03:31:58.993Z,1.89
2023-03-13T03:34:27.242Z,1.87
2023-03-13T03:36:55.564Z,1.78
2023-03-13T03:39:23.723Z,1.75
2023-03-13T03:41:52.617Z,1.69
2023-03-13T03:44:20.769Z,1.64
2023-03-13T03:46:48.928Z,1.65
2023-03-13T03:49:18.445Z,1.61
2023-03-13T03:51:46.568Z,1.49
2023-03-13T03:54:14.712Z,1.46
2023-03-13T03:56:42.819Z,1.50
2023-03-13T03:59:10.924Z,1.41
2023-03-13T04:01:39.027Z,1.46
2023-03-13T04:04:07.174Z,1.40
2023-03-13T04:06:36.673Z,1.34
2023-03-13T04:09:06.099Z,1.31
2023-03-13T04:11:34.270Z,1.20
2023-03-13T04:14:02.306Z,1.07
2023-03-13T04:16:30.454Z,0.98
2023-03-13T04:18:58.680Z,0.96
2023-03-13T04:21:26.905Z,0.94
2023-03-13T04:23:56.431Z,0.96
2023-03-13T04:26:24.618Z,0.91
2023-03-13T04:28:52.685Z,0.84
2023-03-13T04:31:20.889Z,0.80
2023-03-13T04:33:49.132Z,0.82
2023-03-13T04:36:17.343Z,0.80
2023-03-13T04:38:45.486Z,0.72
2023-03-13T04:41:15.196Z,0.69
2023-03-13T04:43:43.391Z,0.63
2023-03-13T04:46:11.522Z,0.60
2023-03-13T04:48:39.801Z,0.65
2023-03-13T04:51:07.999Z,0.67
2023-03-13T04:53:36.195Z,0.72
2023-03-13T04:56:04.598Z,0.85
2023-03-13T04:58:34.120Z,0.88
2023-03-13T05:01:03.565Z,0.98
2023-03-13T05:03:31.797Z,0.94
2023-03-13T05:06:00.662Z,1.01
2023-03-13T05:08:29.463Z,1.20
2023-03-13T05:10:57.859Z,1.28
2023-03-13T05:13:26.173Z,1.40
2023-03-13T05:15:55.865Z,1.51
2023-03-13T05:18:24.523Z,1.48
2023-03-13T05:20:52.585Z,1.48
2023-03-13T05:23:21.824Z,1.57
2023-03-13T05:25:49.978Z,1.54
2023-03-13T05:28:18.176Z,1.47
2023-03-13T05:30:46.397Z,1.59
2023-03-13T05:33:16.227Z,1.60
2023-03-13T05:35:45.336Z,1.65
2023-03-13T05:38:15.084Z,1.68
2023-03-13T05:40:43.341Z,1.82
2023-03-13T05:43:12.634Z,1.94
2023-03-13T05:45:40.950Z,1.93
2023-03-13T05:48:09.502Z,2.00
2023-03-13T05:50:39.203Z,2.13
2023-03-13T05:53:07.529Z,2.13
2023-03-13T05:55:35.786Z,2.11
2023-03-13T05:58:03.962Z,2.15
2023-03-13T06:00:32.356Z,2.26
2023-03-13T06:03:00.677Z,2.36
2023-03-13T06:05:29.150Z,2.40
2023-03-13T06:07:58.903Z,2.47
2023-03-13T06:10:28.484Z,2.49
2023-03-13T06:12:58.891Z,2.57
2023-03-13T06:15:28.360Z,2.71
2023-03-13T06:17:56.538Z,2.66
2023-03-13T06:20:24.676Z,2.86
2023-03-13T06:22:52.954Z,2.90
2023-03-13T06:25:22.624Z,2.98
2023-03-13T06:27:50.758Z,3.07
2023-03-13T06:30:19.780Z,3.16
2023-03-13T06:32:48.052Z,3.16
2023-03-13T06:35:16.258Z,3.27
2023-03-13T06:37:44.620Z,3.34
2023-03-13T06:40:14.694Z,3.54
2023-03-13T06:42:44.234Z,3.67
2023-03-13T06:45:13.243Z,3.73
2023-03-13T06:47:41.490Z,3.80
2023-03-13T06:50:10.659Z,3.86
2023-03-13T06:52:43.879Z,3.85
2023-03-13T06:55:13.811Z,3.99
2023-03-13T06:57:43.453Z,4.06
2023-03-13T07:00:13.087Z,4.23
2023-03-13T07:02:41.292Z,4.29
2023-03-13T07:05:10.534Z,4.42
2023-03-13T07:07:38.789Z,4.51
2023-03-13T07:10:08.173Z,4.59
2023-03-13T07:12:36.622Z,4.65
2023-03-13T07:15:07.296Z,4.73
2023-03-13T07:17:35.607Z,4.75
2023-03-13T07:20:06.812Z,4.92
2023-03-13T07:22:35.114Z,5.05
2023-03-13T07:25:03.730Z,5.28
2023-03-13T07:27:31.912Z,5.37
2023-03-13T07:30:00.193Z,5.50
2023-03-13T07:32:33.024Z,5.57
2023-03-13T07:35:03.449Z,5.67
2023-03-13T07:37:31.695Z,5.71
2023-03-13T07:39:59.851Z,5.73
2023-03-13T07:42:28.232Z,5.89
2023-03-13T07:44:56.297Z,5.94
2023-03-13T07:47:24.450Z,6.01
2023-03-13T07:49:54.218Z,6.17
2023-03-13T07:52:23.209Z,6.25
2023-03-13T07:54:51.365Z,6.31
2023-03-13T07:57:19.541Z,6.33
2023-03-13T07:59:47.767Z,6.41
2023-03-13T08:02:17.064Z,6.45
2023-03-13T08:04:45.136Z,6.56
2023-03-13T08:07:14.778Z,6.62
2023-03-13T08:09:43.035Z,6.70
2023-03-13T08:12:11.174Z,6.77
2023-03-13T08:14:39.254Z,6.84
2023-03-13T08:17:07.836Z,7.05
2023-03-13T08:19:36.356Z,7.18
2023-03-13T08:22:04.844Z,7.23
2023-03-13T08:24:34.456Z,7.27
2023-03-13T08:27:02.654Z,7.38
2023-03-13T08:29:30.769Z,7.58
2023-03-13T08:31:58.872Z,7.67
2023-03-13T08:34:27.018Z,7.70
2023-03-13T08:36:55.209Z,7.72
2023-03-13T08:39:23.324Z,7.77
2023-03-13T08:41:53.221Z,7.92
2023-03-13T08:44:21.565Z,8.06
2023-03-13T08:46:50.370Z,8.17
2023-03-13T08:49:18.827Z,8.21
2023-03-13T08:51:48.579Z,8.35
2023-03-13T08:54:16.991Z,8.38
2023-03-13T08:56:45.370Z,8.51
2023-03-13T08:59:15.709Z,8.61
2023-03-13T09:01:44.614Z,8.52
2023-03-13T09:04:14.070Z,8.49
2023-03-13T09:06:42.261Z,8.62
2023-03-13T09:09:11.127Z,8.62
2023-03-13T09:11:40.515Z,8.74
2023-03-13T09:14:09.841Z,8.79
2023-03-13T09:16:39.705Z,8.68
2023-03-13T09:19:07.983Z,8.66
2023-03-13T09:21:37.768Z,8.75
2023-03-13T09:24:06.474Z,9.02
2023-03-13T09:26:34.480Z,9.19
2023-03-13T09:29:02.821Z,9.38
2023-03-13T09:31:32.609Z,9.56
2023-03-13T09:34:02.834Z,9.57
2023-03-13T09:36:31.602Z,9.51
2023-03-13T09:39:01.165Z,9.46
2023-03-13T09:41:36.211Z,9.40
2023-03-13T09:44:11.759Z,9.50
2023-03-13T09:46:45.906Z,9.44
2023-03-13T09:49:27.428Z,9.49
2023-03-13T09:52:04.012Z,9.44
2023-03-13T09:54:39.978Z,9.33
2023-03-13T09:57:17.723Z,9.30
2023-03-13T09:59:53.311Z,9.47
2023-03-13T10:02:31.144Z,9.57
2023-03-13T10:05:07.721Z,9.67
2023-03-13T10:07:37.191Z,9.63
2023-03-13T10:10:08.506Z,9.51
2023-03-13T10:12:42.983Z,9.53
2023-03-13T10:15:29.455Z,9.58
2023-03-13T10:17:59.899Z,9.77
2023-03-13T10:20:34.244Z,9.85
2023-03-13T10:23:08.212Z,9.81
2023-03-13T10:25:39.528Z,9.89
2023-03-13T10:28:11.985Z,9.95
2023-03-13T10:30:44.802Z,9.98
2023-03-13T10:33:35.837Z,9.81
2023-03-13T10:36:09.131Z,9.86
2023-03-13T10:38:49.513Z,10.09
2023-03-13T10:41:28.232Z,10.15
2023-03-13T10:44:00.209Z,10.18
2023-03-13T10:46:31.004Z,10.37
2023-03-13T10:49:02.912Z,10.44
2023-03-13T10:51:38.326Z,10.39
2023-03-13T10:54:16.307Z,10.49
2023-03-13T10:56:44.792Z,10.70
2023-03-13T10:59:25.317Z,10.70
2023-03-13T11:01:55.085Z,10.67
2023-03-13T11:04:32.369Z,10.66
2023-03-13T11:07:05.273Z,10.73
2023-03-13T11:09:33.904Z,10.92
2023-03-13T11:12:08.262Z,10.81
2023-03-13T11:14:37.197Z,10.61
2023-03-13T11:17:12.490Z,10.64
2023-03-13T11:19:59.426Z,10.52
2023-03-13T11:22:41.708Z,10.73
2023-03-13T11:25:21.742Z,10.89
2023-03-13T11:28:07.774Z,10.79
2023-03-13T11:30:53.698Z,10.89
2023-03-13T11:33:30.480Z,11.09
2023-03-13T11:36:03.372Z,11.19
2023-03-13T11:38:38.441Z,11.24
2023-03-13T11:41:32.039Z,11.45
2023-03-13T11:44:23.903Z,11.44
2023-03-13T11:47:01.581Z,11.58
2023-03-13T11:49:53.236Z,11.22
2023-03-13T11:52:29.592Z,11.11
2023-03-13T11:55:27.326Z,10.94
2023-03-13T11:58:10.683Z,10.97
2023-03-13T12:00:43.675Z,11.15
2023-03-13T12:03:18.504Z,11.08
2023-03-13T12:05:52.907Z,11.22
2023-03-13T12:08:26.904Z,11.16
2023-03-13T12:11:06.623Z,11.25
2023-03-13T12:13:41.343Z,11.28
2023-03-13T12:16:13.708Z,11.38
2023-03-13T12:18:44.145Z,11.54
2023-03-13T12:21:19.417Z,11.42
2023-03-13T12:23:54.329Z,11.30
2023-03-13T12:26:34.698Z,11.25
2023-03-13T12:29:13.148Z,11.40
2023-03-13T12:31:46.820Z,11.41
2023-03-13T12:34:23.259Z,11.34
2023-03-13T12:36:56.770Z,11.34
2023-03-13T12:39:33.122Z,11.42
2023-03-13T12:42:39.219Z,11.50
2023-03-13T12:45:09.890Z,11.60
2023-03-13T12:48:09.324Z,11.61
2023-03-13T12:50:49.883Z,11.78
2023-03-13T12:53:51.062Z,11.94
2023-03-13T12:56:39.298Z,11.99
2023-03-13T12:59:12.532Z,11.96
2023-03-13T13:01:44.434Z,11.91
2023-03-13T13:04:16.698Z,11.94
2023-03-13T13:07:02.595Z,12.02
2023-03-13T13:09:32.188Z,11.73
2023-03-13T13:12:04.345Z,11.65
2023-03-13T13:15:08.125Z,11.53
2023-03-13T13:18:02.942Z,11.43
2023-03-13T13:20:34.193Z,11.37
2023-03-13T13:23:25.429Z,11.53
2023-03-13T13:25:55.121Z,11.59
2023-03-13T13:28:34.660Z,11.47
2023-03-13T13:31:03.613Z,11.54
2023-03-13T13:33:42.487Z,11.58
2023-03-13T13:36:32.822Z,11.60
2023-03-13T13:39:01.065Z,11.70
2023-03-13T13:41:38.199Z,11.71
2023-03-13T13:44:25.793Z,11.74
2023-03-13T13:46:56.395Z,11.84
2023-03-13T13:49:34.613Z,11.86
2023-03-13T13:52:34.406Z,11.74
2023-03-13T13:55:03.366Z,11.69
2023-03-13T13:57:33.988Z,11.78
2023-03-13T14:00:19.828Z,11.89
2023-03-13T14:02:52.497Z,11.77
2023-03-13T14:05:24.341Z,11.72
2023-03-13T14:08:06.334Z,11.67
2023-03-13T14:10:39.612Z,11.76
2023-03-13T14:13:16.803Z,11.74
2023-03-13T14:15:46.973Z,11.78
2023-03-13T14:18:25.468Z,11.79
2023-03-13T14:20:59.147Z,11.87
2023-03-13T14:23:32.923Z,11.87
2023-03-13T14:26:11.055Z,11.94
2023-03-13T14:28:42.515Z,11.92
2023-03-13T14:31:12.250Z,11.84
2023-03-13T14:33:40.784Z,11.84
2023-03-13T14:36:12.306Z,11.73
2023-03-13T14:38:41.867Z,11.69
2023-03-13T14:41:25.511Z,11.69
2023-03-13T14:43:54.807Z,11.68
2023-03-13T14:46:30.690Z,11.74
2023-03-13T14:49:06.693Z,11.60
2023-03-13T14:51:41.177Z,11.59
2023-03-13T14:54:27.937Z,11.63
2023-03-13T14:57:16.273Z,11.56
2023-03-13T14:59:45.368Z,11.68
2023-03-13T15:02:25.673Z,11.63
2023-03-13T15:05:01.224Z,11.59
2023-03-13T15:07:38.799Z,11.68
2023-03-13T15:10:21.036Z,11.60
2023-03-13T15:12:49.763Z,11.55
2023-03-13T15:15:18.913Z,11.49
2023-03-13T15:17:48.093Z,11.44
2023-03-13T15:20:19.358Z,11.50
2023-03-13T15:22:49.417Z,11.49
2023-03-13T15:25:20.865Z,11.39
2023-03-13T15:27:50.095Z,11.45
2023-03-13T15:30:19.581Z,11.44
2023-03-13T15:32:48.203Z,11.40
2023-03-13T15:35:29.254Z,11.38
2023-03-13T15:38:01.197Z,11.37
2023-03-13T15:40:30.966Z,11.25
2023-03-13T15:42:59.620Z,11.30
2023-03-13T15:45:27.701Z,11.31
2023-03-13T15:47:55.935Z,11.22
2023-03-13T15:50:29.953Z,11.14
2023-03-13T15:53:00.822Z,11.15
2023-03-13T15:55:30.833Z,11.10
2023-03-13T15:57:58.923Z,11.05
2023-03-13T16:00:28.709Z,10.96
2023-03-13T16:02:56.838Z,10.92
2023-03-13T16:05:25.099Z,10.84
2023-03-13T16:07:53.348Z,10.75
2023-03-13T16:10:25.849Z,10.68
2023-03-13T16:12:54.558Z,10.65
2023-03-13T16:15:23.132Z,10.53
2023-03-13T16:17:51.329Z,10.43
2023-03-13T16:20:22.175Z,10.34
2023-03-13T16:22:53.342Z,10.31
2023-03-13T16:25:24.755Z,10.32
2023-03-13T16:27:55.045Z,10.39
2023-03-13T16:30:25.481Z,10.21
2023-03-13T16:32:53.949Z,10.05
2023-03-13T16:35:22.368Z,9.92
2023-03-13T16:37:52.188Z,10.02
2023-03-13T16:40:24.553Z,9.97
2023-03-13T16:42:52.825Z,9.82
2023-03-13T16:45:21.067Z,9.80
2023-03-13T16:47:49.726Z,9.67
2023-03-13T16:50:25.349Z,9.53
2023-03-13T16:52:54.741Z,9.46
2023-03-13T16:55:28.559Z,9.42
2023-03-13T16:57:57.339Z,9.31
2023-03-13T17:00:27.471Z,9.20
2023-03-13T17:02:56.722Z,9.13
2023-03-13T17:05:25.893Z,9.03
2023-03-13T17:07:54.658Z,8.95
2023-03-13T17:10:26.845Z,8.93
2023-03-13T17:12:55.057Z,8.82
2023-03-13T17:15:23.812Z,8.84
2023-03-13T17:17:52.969Z,8.89
2023-03-13T17:20:23.103Z,8.96
2023-03-13T17:22:52.367Z,8.98
2023-03-13T17:25:21.042Z,9.07
2023-03-13T17:27:51.338Z,8.99
2023-03-13T17:30:22.898Z,8.87
2023-03-13T17:32:52.531Z,8.84
2023-03-13T17:35:22.504Z,8.84
2023-03-13T17:37:51.388Z,8.90
2023-03-13T17:40:21.846Z,8.95
2023-03-13T17:42:51.961Z,8.88
2023-03-13T17:45:21.065Z,8.77
2023-03-13T17:47:50.504Z,8.74
2023-03-13T17:50:21.929Z,8.69
2023-03-13T17:52:50.592Z,8.71
2023-03-13T17:55:18.986Z,8.63
2023-03-13T17:57:48.601Z,8.52
2023-03-13T18:00:24.780Z,8.41
2023-03-13T18:02:53.160Z,8.31
2023-03-13T18:05:21.585Z,8.29
2023-03-13T18:07:51.007Z,8.22
2023-03-13T18:10:22.438Z,8.09
2023-03-13T18:12:52.004Z,7.95
2023-03-13T18:15:23.081Z,7.86
2023-03-13T18:17:52.086Z,7.73
2023-03-13T18:20:22.121Z,7.68
2023-03-13T18:22:50.422Z,7.61
2023-03-13T18:25:19.598Z,7.50
2023-03-13T18:27:48.863Z,7.41
2023-03-13T18:30:19.645Z,7.33
2023-03-13T18:32:49.280Z,7.26
2023-03-13T18:35:17.974Z,7.20
2023-03-13T18:37:48.112Z,7.14
2023-03-13T18:40:18.977Z,7.20
2023-03-13T18:42:47.830Z,7.10
2023-03-13T18:45:17.275Z,7.03
2023-03-13T18:47:45.633Z,6.96
2023-03-13T18:50:25.080Z,6.91
2023-03-13T18:52:55.513Z,6.90
2023-03-13T18:55:24.054Z,7.00
2023-03-13T18:57:52.241Z,7.00
2023-03-13T19:00:23.330Z,7.00
2023-03-13T19:02:51.984Z,6.96
2023-03-13T19:05:22.516Z,6.90
2023-03-13T19:07:51.360Z,6.90
2023-03-13T19:10:24.338Z,6.90
2023-03-13T19:12:53.595Z,6.95
2023-03-13T19:15:24.805Z,6.81
2023-03-13T19:17:54.032Z,6.67
2023-03-13T19:20:25.326Z,6.57
2023-03-13T19:22:55.213Z,6.52
2023-03-13T19:25:24.528Z,6.46
2023-03-13T19:27:54.162Z,6.40
2023-03-13T19:30:24.255Z,6.32
2023-03-13T19:32:53.081Z,6.32
2023-03-13T19:35:22.330Z,6.39
2023-03-13T19:37:52.514Z,6.46
2023-03-13T19:40:23.396Z,6.51
2023-03-13T19:42:51.660Z,6.46
2023-03-13T19:45:22.034Z,6.42
2023-03-13T19:47:50.440Z,6.37
2023-03-13T19:50:20.766Z,6.30
2023-03-13T19:52:49.373Z,6.25
2023-03-13T19:55:19.426Z,6.15
2023-03-13T19:57:47.935Z,6.06
2023-03-13T20:00:23.025Z,6.05
2023-03-13T20:02:52.445Z,5.97
2023-03-13T20:05:20.777Z,5.90
2023-03-13T20:07:49.087Z,5.87
2023-03-13T20:10:18.595Z,5.87
2023-03-13T20:12:46.716Z,5.77
2023-03-13T20:18:00.183Z,5.63
2023-03-13T20:20:28.181Z,5.58
2023-03-13T20:22:56.760Z,5.58
2023-03-13T20:25:27.937Z,5.61
2023-03-13T20:27:56.315Z,5.49
2023-03-13T20:30:24.572Z,5.41
2023-03-13T20:32:59.668Z,5.33
2023-03-13T20:35:29.412Z,5.24
2023-03-13T20:37:59.760Z,5.34
2023-03-13T20:40:29.715Z,5.32
2023-03-13T20:42:59.475Z,5.21
2023-03-13T20:45:28.494Z,5.03
2023-03-13T20:47:56.868Z,5.04
2023-03-13T20:50:25.297Z,4.97
2023-03-13T20:52:53.562Z,4.85
2023-03-13T20:55:21.681Z,4.83
2023-03-13T20:57:51.277Z,4.91
2023-03-13T21:00:20.430Z,4.83
2023-03-13T21:02:50.112Z,4.86
2023-03-13T21:05:18.726Z,4.90
2023-03-13T21:07:48.123Z,4.85
2023-03-13T21:10:19.235Z,4.72
2023-03-13T21:12:47.778Z,4.53
2023-03-13T21:15:17.536Z,4.31
2023-03-13T21:17:45.673Z,4.24
2023-03-13T21:20:14.308Z,4.32
2023-03-13T21:22:44.584Z,4.26
2023-03-13T21:25:13.848Z,4.17
2023-03-13T21:27:43.867Z,4.18
2023-03-13T21:30:14.517Z,4.09
2023-03-13T21:32:44.789Z,4.03
2023-03-13T21:35:14.336Z,3.96
2023-03-13T21:37:43.067Z,3.73
2023-03-13T21:40:12.988Z,3.69
2023-03-13T21:42:41.408Z,3.77
2023-03-13T21:45:11.083Z,3.74
2023-03-13T21:47:39.363Z,3.67
2023-03-13T21:50:11.347Z,3.52
2023-03-13T21:52:41.357Z,3.63
2023-03-13T21:55:12.999Z,3.51
2023-03-13T21:57:41.341Z,3.45
2023-03-13T22:00:14.140Z,3.44
2023-03-13T22:02:42.609Z,3.46
2023-03-13T22:05:12.645Z,3.45
2023-03-13T22:07:40.752Z,3.49
2023-03-13T22:10:09.727Z,3.53
2023-03-13T22:12:38.232Z,3.53
2023-03-13T22:15:07.639Z,3.37
2023-03-13T22:17:35.769Z,3.38
2023-03-13T22:20:05.259Z,3.39
2023-03-13T22:22:36.020Z,3.30
2023-03-13T22:25:04.502Z,3.28
2023-03-13T22:27:32.813Z,3.16
2023-03-13T22:30:01.147Z,3.29
2023-03-13T22:32:30.307Z,3.28
2023-03-13T22:34:58.482Z,3.12
2023-03-13T22:37:27.345Z,3.11
2023-03-13T22:39:57.492Z,3.10
2023-03-13T22:42:26.179Z,3.15
2023-03-13T22:44:55.667Z,3.11
2023-03-13T22:47:24.836Z,3.11
2023-03-13T22:49:53.688Z,3.06
2023-03-13T22:52:24.683Z,2.95
2023-03-13T22:54:52.827Z,3.00
2023-03-13T22:57:22.360Z,3.06
2023-03-13T22:59:50.485Z,2.99
2023-03-13T23:02:18.755Z,3.01
2023-03-13T23:04:46.872Z,2.95
2023-03-13T23:07:15.964Z,3.07
2023-03-13T23:09:45.888Z,2.93
2023-03-13T23:12:13.986Z,2.89
2023-03-13T23:14:44.117Z,2.95
2023-03-13T23:17:12.325Z,2.86
2023-03-13T23:19:40.424Z,2.83
2023-03-13T23:22:08.817Z,2.67
2023-03-13T23:24:37.052Z,2.58
2023-03-13T23:27:05.991Z,2.53
2023-03-13T23:29:34.163Z,2.46
2023-03-13T23:32:03.718Z,2.48
2023-03-13T23:34:31.981Z,2.51
2023-03-13T23:37:00.109Z,2.50
2023-03-13T23:39:28.237Z,2.52
2023-03-13T23:41:56.267Z,2.56
2023-03-13T23:44:25.846Z,2.50
2023-03-13T23:46:54.524Z,2.46
2023-03-13T23:49:24.033Z,2.45
2023-03-13T23:51:52.383Z,2.42
2023-03-13T23:54:21.543Z,2.42
2023-03-13T23:56:49.771Z,2.48
2023-03-13T23:59:18.371Z,2.55
